Arnold, PA

3:36 PM EDT on May 30, 2015 (GMT -0400)
Butler County-Scholter | | Change Station
CLOSE
Current Station
Airport
Location: Butler,
Elevation: 1247 ft
Nearby Weather Stations
Active Advisory: Special Statement

Elev 1247 ft 40.78 °N, 79.95 °W | Updated 21 minutes ago

Overcast
Overcast
70 °F
Feels Like 70 °F
N
6
Wind Variable Wind from WSW

Today
High -- | Low -- °F
--% Chance of Precip.
Yesterday
High -- | Low -- °F
Precip. -- in
5:51 AM 8:41 PM
Waxing Gibbous, 91% visible
Pressure 30.09 in
Visibility 10.0 miles
Clouds Few 3900 ft
Scattered Clouds 4800 ft
Dew Point 63 °F
Humidity 78%
Rainfall 0.01 in
Snow Depth Not available.
UV 8 out of 12
Pollen 8.80 out of 12
Air Quality Not available.
Flu Activity Sporadic
METAR KBTP 301915Z AUTO 25005KT 10SM FEW039 SCT048 21/17 A3009 RMK AO1 LTG DSNT NE

More Conditions Fewer Conditions

Pressure 30.09 in
Visibility 10.0 miles
Clouds Few 3900 ft
Scattered Clouds 4800 ft
Dew Point 63 °F
Humidity 78%
Rainfall 0.01 in
Snow Depth Not available.
UV 8 out of 12
Pollen 8.80 out of 12
Air Quality Not available.
Flu Activity Sporadic
METAR KBTP 301915Z AUTO 25005KT 10SM FEW039 SCT048 21/17 A3009 RMK AO1 LTG DSNT NE

More Conditions Fewer Conditions

10-Day Weather Forecast

Almanac

Astronomy

May. 30, 2015 Rise Set
Actual Time
Civil Twilight
Nautical Twilight
Astronomical Twilight
Moon
Length of Visible Light
Length of Day
Tomorrow will be .
, % of the Moon is Illuminated

Today's Extremes

State Highs State Lows

Community

WunderPhotos

Upload Photos

1,825,594 photos uploaded!

WunderBlogs® & News

Nearby

Air Quality

  Air Quality AQ Index Pollutant
Not available.

Snow Depth

Station Depth Elevation

Earthquake Activity

City Distance Mag. Time & Date
Minimum magnitude displayed is 2.5.

Coastal Water Temperatures

Place Temperature

Stations

Nearby Weather Stations

Station Location Temp. Windchill Dew Point Humidity Wind Precip. Elev Updated Type
                   
Special Statement
Statement as of 2:53 PM EDT on May 30, 2015

... A strong thunderstorm will affect northwestern Indiana... southern
Armstrong and north central Westmoreland counties...

At 252 PM EDT... a strong thunderstorm was over Leechburg... or over
Vandergrift... moving northeast at 25 mph.

Wind gusts up to 50 mph and dime size hail are possible with this
storm.

Locations impacted include...
Indiana... Vandergrift... Kittanning... Apollo... Harrison Township...
Ford City... Leechburg... Freeport... North Apollo... West Leechburg...
Orchard Hills... Rural Valley... Oklahoma... West Lebanon... East
Vandergrift... Dayton... Hyde Park... Chevy Chase Heights... North
Vandergrift and ernest.

Lat... Lon 4060 7906 4052 7963 4063 7970 4064 7969
      4066 7970 4072 7969 4094 7926
time... Mot... loc 1852z 245deg 21kt 4064 7958

33